Time;durP1;ratioP1;P1;durP2;ratioP2;P2;SDS_P1;SDS_P2;PMS_P1;PMS_P2;Temp;Humidity;BMP_temperature;BMP_pressure;BME280_temperature;BME280_humidity;BME280_pressure;Samples;Min_cycle;Max_cycle;Signal;HPM_P1;HPM_P2
2023/09/28 00:00:37;;;;;;;18.13;9.27;;;;;;;20.83;70.60;101361.34;2113795;28;20036;-66
2023/09/28 00:01:42;;;;;;;13.75;9.02;;;;;;;20.78;70.55;101367.03;2109340;28;20024;-68
2023/09/28 00:02:51;;;;;;;19.25;9.57;;;;;;;20.74;70.87;101366.06;2114422;28;20087;-66
2023/09/28 00:03:53;;;;;;;13.63;9.38;;;;;;;20.72;70.90;101365.59;2115257;28;20139;-67
2023/09/28 00:04:56;;;;;;;21.92;9.20;;;;;;;20.73;70.84;101369.91;2115070;28;20152;-67
2023/09/28 00:05:58;;;;;;;17.40;9.30;;;;;;;20.72;70.94;101368.31;2115275;28;20039;-68
2023/09/28 00:07:10;;;;;;;13.85;9.57;;;;;;;20.73;70.97;101368.00;2105935;28;20052;-67
2023/09/28 00:08:12;;;;;;;18.08;10.23;;;;;;;20.68;70.94;101359.16;2099812;28;20029;-67
2023/09/28 00:09:19;;;;;;;13.75;9.75;;;;;;;20.68;71.01;101367.34;2098805;28;20028;-67
2023/09/28 00:10:30;;;;;;;16.65;9.10;;;;;;;20.66;70.81;101364.16;2098558;28;20045;-67
2023/09/28 00:11:35;;;;;;;16.13;8.48;;;;;;;20.63;70.89;101368.34;2099975;28;20036;-68
2023/09/28 00:12:52;;;;;;;17.73;9.30;;;;;;;20.64;71.04;101369.16;2093020;28;20032;-67
2023/09/28 00:13:58;;;;;;;19.45;9.00;;;;;;;20.64;71.00;101361.75;2093530;28;20134;-67
2023/09/28 00:15:02;;;;;;;17.65;8.80;;;;;;;20.65;71.06;101354.34;2092096;28;20076;-66
2023/09/28 00:16:04;;;;;;;13.65;9.23;;;;;;;20.66;70.73;101366.91;2097908;28;20044;-66
2023/09/28 00:17:09;;;;;;;14.32;9.38;;;;;;;20.66;70.93;101361.44;2098304;28;20092;-66
2023/09/28 00:18:11;;;;;;;14.43;9.55;;;;;;;20.67;70.94;101363.84;2098423;28;20051;-67
2023/09/28 00:19:13;;;;;;;13.55;9.35;;;;;;;20.69;70.85;101366.25;2106169;28;20969;-67
2023/09/28 00:20:19;;;;;;;19.75;9.82;;;;;;;20.71;70.81;101363.97;2089903;28;20148;-67
2023/09/28 00:21:24;;;;;;;14.35;8.52;;;;;;;20.71;70.83;101370.25;2084441;28;20116;-67
2023/09/28 00:22:30;;;;;;;17.23;9.00;;;;;;;20.73;70.67;101361.72;2099155;28;20035;-67
2023/09/28 00:23:32;;;;;;;22.52;9.07;;;;;;;20.72;70.74;101360.94;2106553;28;20918;-67
2023/09/28 00:24:36;;;;;;;18.58;9.55;;;;;;;20.73;70.58;101364.47;2106879;28;20071;-67
2023/09/28 00:25:37;;;;;;;14.65;9.60;;;;;;;20.73;70.43;101367.19;2098123;28;21008;-67
2023/09/28 00:26:39;;;;;;;18.23;9.05;;;;;;;20.74;70.68;101366.88;2090109;28;20127;-66
2023/09/28 00:27:50;;;;;;;17.42;8.90;;;;;;;20.75;70.39;101365.75;2098465;28;20898;-66
2023/09/28 00:28:59;;;;;;;19.85;8.85;;;;;;;20.77;70.49;101368.13;2097467;28;20051;-67
2023/09/28 00:30:24;;;;;;;17.20;9.02;;;;;;;20.79;70.47;101365.88;2093747;28;20056;-67
2023/09/28 00:31:36;;;;;;;16.30;9.18;;;;;;;20.79;70.24;101368.63;2103682;28;20068;-67
2023/09/28 00:32:42;;;;;;;16.17;9.27;;;;;;;20.78;70.30;101367.81;2090318;28;20208;-67
2023/09/28 00:33:47;;;;;;;14.75;8.90;;;;;;;20.76;70.38;101363.81;2090466;28;20041;-67
2023/09/28 00:34:51;;;;;;;15.43;9.18;;;;;;;20.77;70.42;101368.13;2099591;28;20029;-67
2023/09/28 00:35:55;;;;;;;18.02;9.48;;;;;;;20.77;70.55;101368.13;2082098;28;20131;-67
2023/09/28 00:37:00;;;;;;;17.52;9.50;;;;;;;20.77;70.21;101368.13;2082246;28;20795;-66
2023/09/28 00:38:06;;;;;;;17.95;9.02;;;;;;;20.78;70.35;101367.03;2083338;28;20037;-67
2023/09/28 00:39:08;;;;;;;16.67;9.15;;;;;;;20.79;70.20;101366.69;2090482;28;20030;-67
2023/09/28 00:40:21;;;;;;;17.80;9.15;;;;;;;20.78;70.24;101365.09;2090702;28;20044;-67
2023/09/28 00:41:23;;;;;;;16.00;9.07;;;;;;;20.80;70.00;101368.28;2099667;28;20115;-67
2023/09/28 00:42:24;;;;;;;18.75;9.00;;;;;;;20.80;70.21;101362.00;2089845;28;20025;-67
2023/09/28 00:43:31;;;;;;;16.08;9.93;;;;;;;20.77;70.27;101360.72;2090565;28;20029;-67
2023/09/28 00:44:37;;;;;;;18.75;9.45;;;;;;;20.76;70.24;101361.06;2098798;28;20036;-67
2023/09/28 00:45:39;;;;;;;15.07;9.02;;;;;;;20.76;70.33;101361.06;2098324;28;21037;-67
2023/09/28 00:46:44;;;;;;;14.95;9.07;;;;;;;20.70;70.14;101360.44;2082001;28;20872;-67
2023/09/28 00:47:48;;;;;;;14.38;9.13;;;;;;;20.69;70.33;101358.84;2074658;28;20097;-67
2023/09/28 00:49:02;;;;;;;15.48;9.20;;;;;;;20.66;70.45;101361.44;2097972;28;20041;-67
2023/09/28 00:50:15;;;;;;;17.65;9.05;;;;;;;20.62;70.57;101355.00;2106418;28;20145;-67
2023/09/28 00:51:19;;;;;;;19.63;9.20;;;;;;;20.60;70.76;101358.06;2104807;28;20915;-66
2023/09/28 00:52:27;;;;;;;16.63;9.23;;;;;;;20.62;70.76;101365.94;2105681;28;20033;-66
2023/09/28 00:53:31;;;;;;;17.65;8.93;;;;;;;20.60;70.63;101360.81;2100569;28;20064;-67
2023/09/28 00:54:38;;;;;;;18.73;9.13;;;;;;;20.62;70.84;101361.28;2106392;28;20840;-67
2023/09/28 00:55:47;;;;;;;14.45;9.43;;;;;;;20.60;71.09;101358.88;2098136;28;20029;-67
2023/09/28 00:56:51;;;;;;;15.93;9.32;;;;;;;20.62;70.84;101355.00;2082961;28;20034;-67
2023/09/28 00:57:58;;;;;;;16.75;9.20;;;;;;;20.62;70.95;101355.81;2091375;28;20064;-67
2023/09/28 00:59:02;;;;;;;16.98;9.35;;;;;;;20.63;70.74;101351.97;2090785;28;20048;-67
2023/09/28 01:00:18;;;;;;;18.88;9.63;;;;;;;20.64;71.17;101352.75;2089541;28;21221;-66
2023/09/28 01:01:31;;;;;;;19.30;10.13;;;;;;;20.65;70.82;101357.09;2114694;28;20036;-67
2023/09/28 01:02:39;;;;;;;14.55;9.70;;;;;;;20.65;70.65;101348.88;2114841;28;20087;-65
2023/09/28 01:03:41;;;;;;;15.23;9.30;;;;;;;20.66;70.77;101351.31;2099507;28;20029;-67
2023/09/28 01:04:48;;;;;;;15.68;9.38;;;;;;;20.65;70.87;101351.63;2091013;28;20071;-67
2023/09/28 01:05:52;;;;;;;18.08;9.10;;;;;;;20.64;70.56;101353.56;2090689;28;20081;-67
2023/09/28 01:06:58;;;;;;;14.98;9.13;;;;;;;20.64;70.73;101350.81;2107639;28;20157;-67
2023/09/28 01:08:14;;;;;;;18.05;9.20;;;;;;;20.65;70.79;101348.88;2106252;28;20025;-67
2023/09/28 01:09:17;;;;;;;23.65;9.50;;;;;;;20.65;70.70;101351.63;2107968;28;20040;-67
2023/09/28 01:10:25;;;;;;;18.15;9.32;;;;;;;20.64;70.63;101355.50;2115093;28;20040;-67
2023/09/28 01:11:28;;;;;;;14.82;9.55;;;;;;;20.59;70.51;101343.63;2107849;28;20020;-68
2023/09/28 01:12:38;;;;;;;16.40;9.73;;;;;;;20.48;70.70;101347.78;2115900;28;20028;-67
2023/09/28 01:13:49;;;;;;;14.95;9.38;;;;;;;20.39;70.99;101347.00;2109405;28;20024;-68
2023/09/28 01:14:59;;;;;;;16.02;9.68;;;;;;;20.33;71.28;101348.31;2098579;28;20021;-68
2023/09/28 01:16:01;;;;;;;17.63;9.90;;;;;;;20.31;71.62;101345.13;2095098;28;20068;-68
2023/09/28 01:17:03;;;;;;;22.00;10.20;;;;;;;20.29;71.69;101345.44;2116761;28;21084;-68
2023/09/28 01:18:15;;;;;;;17.50;10.18;;;;;;;20.30;71.64;101343.50;2116253;28;20025;-68
2023/09/28 01:19:23;;;;;;;15.23;9.55;;;;;;;20.29;71.75;101347.38;2100787;28;20127;-68
2023/09/28 01:20:35;;;;;;;19.70;9.60;;;;;;;20.26;71.59;101343.34;2102227;28;20099;-65
2023/09/28 01:21:37;;;;;;;19.17;9.68;;;;;;;20.21;71.71;101348.19;2100332;28;20849;-68
2023/09/28 01:22:45;;;;;;;24.92;10.10;;;;;;;20.16;71.76;101343.69;2083042;28;20917;-68
2023/09/28 01:23:48;;;;;;;17.75;10.32;;;;;;;20.13;72.06;101345.16;2092562;28;20107;-68
2023/09/28 01:24:50;;;;;;;16.58;9.90;;;;;;;20.10;72.12;101343.06;2093942;28;20040;-68
2023/09/28 01:25:56;;;;;;;16.40;9.73;;;;;;;20.07;72.41;101340.19;2109389;27;20028;-68
2023/09/28 01:26:57;;;;;;;20.35;10.13;;;;;;;20.06;72.34;101344.84;2107783;28;20915;-68
2023/09/28 01:28:03;;;;;;;16.85;10.25;;;;;;;20.06;72.33;101335.84;2100323;28;20152;-68
2023/09/28 01:29:06;;;;;;;18.80;10.20;;;;;;;20.02;72.46;101338.44;2108089;28;20860;-68
2023/09/28 01:30:11;;;;;;;17.17;9.50;;;;;;;20.02;72.35;101337.59;2105892;28;20049;-68
2023/09/28 01:31:13;;;;;;;20.20;10.25;;;;;;;19.99;72.50;101339.09;2107760;28;20151;-68
2023/09/28 01:32:20;;;;;;;15.70;9.85;;;;;;;19.97;72.49;101341.31;2099589;28;20033;-67
2023/09/28 01:33:34;;;;;;;20.65;9.95;;;;;;;19.97;72.64;101330.41;2101913;28;20203;-67
2023/09/28 01:34:38;;;;;;;17.02;9.80;;;;;;;19.98;72.81;101334.72;2092391;28;20076;-67
2023/09/28 01:35:51;;;;;;;23.95;9.48;;;;;;;19.97;72.53;101324.16;2099654;28;20028;-67
2023/09/28 01:36:54;;;;;;;23.20;10.48;;;;;;;19.94;72.66;101331.03;2113937;28;20043;-68
2023/09/28 01:38:23;;;;;;;15.18;9.93;;;;;;;19.95;72.84;101327.19;2107889;28;20156;-68
2023/09/28 01:39:27;;;;;;;15.30;9.57;;;;;;;19.94;72.84;101325.59;2091863;28;20033;-68
2023/09/28 01:40:31;;;;;;;19.13;10.23;;;;;;;19.94;72.75;101320.13;2091599;28;20038;-66
2023/09/28 01:41:32;;;;;;;18.10;9.88;;;;;;;19.98;72.87;101328.47;2091277;28;20887;-68
2023/09/28 01:42:35;;;;;;;16.23;9.68;;;;;;;19.96;72.83;101328.81;2090862;28;20048;-66
2023/09/28 01:43:37;;;;;;;17.80;10.02;;;;;;;19.97;72.75;101322.22;2099404;28;20036;-66
2023/09/28 01:44:44;;;;;;;19.55;9.80;;;;;;;20.02;72.69;101321.22;2091910;28;20141;-67
2023/09/28 01:45:46;;;;;;;15.88;9.63;;;;;;;20.03;72.75;101329.09;2104203;28;21279;-67
2023/09/28 01:46:50;;;;;;;14.80;9.38;;;;;;;20.05;72.66;101328.78;2091260;28;20037;-67
2023/09/28 01:47:52;;;;;;;17.80;10.23;;;;;;;20.07;72.60;101321.88;2091887;28;20116;-67
2023/09/28 01:49:01;;;;;;;17.58;10.07;;;;;;;20.08;72.37;101325.41;2099470;28;20894;-66
2023/09/28 01:50:04;;;;;;;21.20;9.95;;;;;;;20.09;72.27;101316.09;2100089;28;20025;-67
2023/09/28 01:51:07;;;;;;;19.65;9.77;;;;;;;20.10;72.51;101326.69;2115808;28;20051;-67
2023/09/28 01:52:08;;;;;;;15.50;8.93;;;;;;;20.09;72.41;101319.63;2090517;28;20936;-66
2023/09/28 01:53:10;;;;;;;17.88;9.60;;;;;;;20.11;72.38;101325.56;2083003;28;20799;-67
2023/09/28 01:54:14;;;;;;;17.55;10.48;;;;;;;20.04;72.29;101319.78;2103732;28;20027;-67
2023/09/28 01:55:22;;;;;;;18.65;9.82;;;;;;;20.11;72.22;101325.56;2090605;28;20036;-67
2023/09/28 01:56:23;;;;;;;13.80;9.32;;;;;;;20.12;72.47;101327.16;2083122;28;20967;-68
2023/09/28 01:57:34;;;;;;;20.67;9.75;;;;;;;20.13;72.20;101319.78;2084313;28;20875;-67
2023/09/28 01:58:40;;;;;;;16.58;9.38;;;;;;;20.13;72.17;101323.31;2085153;28;20068;-67
2023/09/28 01:59:47;;;;;;;18.95;10.00;;;;;;;20.16;72.23;101331.97;2083825;28;20856;-68
2023/09/28 02:00:48;;;;;;;21.33;10.50;;;;;;;20.14;72.32;101324.94;2084763;28;20049;-67
2023/09/28 02:01:53;;;;;;;14.30;10.00;;;;;;;20.15;72.30;101323.00;2091314;28;20052;-67
2023/09/28 02:03:14;;;;;;;22.70;11.00;;;;;;;20.14;72.30;101321.38;2082623;28;20072;-67
2023/09/28 02:04:17;;;;;;;20.08;10.32;;;;;;;20.16;72.38;101318.34;2095617;28;20075;-67
2023/09/28 02:05:19;;;;;;;17.60;10.23;;;;;;;20.14;72.29;101314.00;2107727;28;20017;-67
2023/09/28 02:06:24;;;;;;;15.85;10.80;;;;;;;20.13;72.25;101312.38;2107754;28;20135;-68
2023/09/28 02:07:26;;;;;;;19.58;10.57;;;;;;;20.14;72.27;101314.00;2099055;28;20025;-67
2023/09/28 02:08:31;;;;;;;13.25;9.50;;;;;;;20.13;72.28;101306.91;2083913;28;20024;-67
2023/09/28 02:09:41;;;;;;;17.60;10.30;;;;;;;20.14;72.31;101305.00;2084971;28;20120;-67
2023/09/28 02:10:46;;;;;;;18.10;10.70;;;;;;;20.13;72.22;101311.59;2100436;28;20025;-68
2023/09/28 02:11:48;;;;;;;21.80;10.57;;;;;;;20.13;72.24;101306.91;2107648;28;20024;-68
2023/09/28 02:12:52;;;;;;;16.13;10.32;;;;;;;20.12;72.44;101305.31;2090957;28;20132;-68
2023/09/28 02:13:54;;;;;;;21.35;11.23;;;;;;;20.11;72.28;101301.00;2091793;28;20037;-67
2023/09/28 02:15:08;;;;;;;19.67;10.40;;;;;;;20.11;72.27;101302.91;2091595;28;20113;-68
2023/09/28 02:16:11;;;;;;;21.13;10.98;;;;;;;20.11;72.38;101302.91;2090586;28;21174;-65
2023/09/28 02:17:12;;;;;;;14.77;9.95;;;;;;;20.11;72.40;101302.91;2083113;28;20104;-67
2023/09/28 02:18:17;;;;;;;22.33;10.40;;;;;;;20.11;72.25;101305.63;2082699;28;20038;-67
2023/09/28 02:19:23;;;;;;;17.77;10.13;;;;;;;20.10;72.46;101302.09;2091541;28;20038;-66
2023/09/28 02:20:24;;;;;;;19.70;10.45;;;;;;;20.10;72.33;101295.84;2082405;28;20033;-66
2023/09/28 02:21:26;;;;;;;18.27;10.40;;;;;;;20.10;72.41;101304.03;2082209;28;20036;-66
2023/09/28 02:22:28;;;;;;;18.48;10.50;;;;;;;20.09;72.56;101303.25;2098430;28;20037;-66
2023/09/28 02:23:32;;;;;;;15.95;10.77;;;;;;;20.08;72.65;101307.09;2099016;28;20071;-66
2023/09/28 02:24:35;;;;;;;17.85;10.38;;;;;;;20.08;72.30;101304.38;2098844;28;20052;-66
2023/09/28 02:25:36;;;;;;;18.80;9.98;;;;;;;20.04;72.44;101295.22;2098259;28;20033;-65
2023/09/28 02:26:44;;;;;;;18.27;10.40;;;;;;;20.07;72.56;101301.97;2098661;28;20023;-66
2023/09/28 02:27:51;;;;;;;19.48;9.98;;;;;;;20.06;72.49;101301.16;2101404;28;20025;-66
2023/09/28 02:28:59;;;;;;;21.90;10.35;;;;;;;20.04;72.67;101297.16;2100202;28;20211;-66
2023/09/28 02:30:04;;;;;;;22.60;10.93;;;;;;;20.05;72.50;101298.75;2100172;28;20110;-66
2023/09/28 02:31:08;;;;;;;19.77;10.32;;;;;;;20.04;72.50;101299.88;2100396;28;20952;-66
2023/09/28 02:32:20;;;;;;;20.48;11.48;;;;;;;20.02;72.58;101294.75;2098431;28;20028;-66
2023/09/28 02:33:25;;;;;;;19.83;11.00;;;;;;;20.01;72.73;101298.59;2093107;28;20072;-66
2023/09/28 02:34:28;;;;;;;16.48;9.95;;;;;;;20.00;72.84;101297.00;2099288;28;20843;-66
2023/09/28 02:35:32;;;;;;;17.25;10.90;;;;;;;19.98;72.63;101296.50;2090403;28;20807;-66
2023/09/28 02:36:36;;;;;;;18.17;10.30;;;;;;;19.94;72.67;101292.03;2083291;28;20062;-66
2023/09/28 02:37:38;;;;;;;18.13;11.05;;;;;;;19.93;72.94;101296.69;2090972;28;20886;-65
2023/09/28 02:38:40;;;;;;;17.98;10.70;;;;;;;19.94;73.03;101305.69;2099461;28;20111;-65
2023/09/28 02:39:48;;;;;;;17.05;11.02;;;;;;;19.93;73.00;101299.44;2107187;28;20020;-66
2023/09/28 02:40:52;;;;;;;19.05;11.27;;;;;;;19.93;73.00;101295.91;2090933;28;20088;-66
2023/09/28 02:41:55;;;;;;;18.48;10.20;;;;;;;19.90;73.05;101295.41;2090509;28;20820;-66
2023/09/28 02:43:00;;;;;;;15.80;10.80;;;;;;;19.90;73.27;101298.16;2098921;28;20086;-66
2023/09/28 02:44:05;;;;;;;15.57;10.60;;;;;;;19.90;73.12;101295.41;2099667;28;20162;-66
2023/09/28 02:45:15;;;;;;;19.25;10.80;;;;;;;19.90;72.97;101295.41;2092212;28;20037;-65
2023/09/28 02:46:19;;;;;;;18.67;10.60;;;;;;;19.90;73.12;101291.88;2096229;28;20119;-66
2023/09/28 02:47:27;;;;;;;16.60;10.88;;;;;;;19.86;73.09;101297.19;2108315;28;20035;-66
2023/09/28 02:48:32;;;;;;;25.52;10.38;;;;;;;19.87;73.16;101300.72;2098913;28;20041;-66
2023/09/28 02:49:36;;;;;;;23.52;13.07;;;;;;;19.86;73.32;101291.75;2092941;28;20161;-66
2023/09/28 02:50:41;;;;;;;18.45;11.00;;;;;;;19.86;73.23;101301.81;2100065;28;20033;-66
2023/09/28 02:51:47;;;;;;;14.27;9.77;;;;;;;19.85;73.30;101295.56;2099128;28;20247;-66
2023/09/28 02:52:52;;;;;;;18.88;10.57;;;;;;;19.85;73.31;101305.69;2099416;28;20053;-66
2023/09/28 02:53:58;;;;;;;17.70;10.70;;;;;;;19.86;73.11;101301.81;2100944;28;20033;-66
2023/09/28 02:55:00;;;;;;;22.75;11.13;;;;;;;19.86;73.26;101301.81;2099864;28;20903;-66
2023/09/28 02:56:05;;;;;;;20.08;10.65;;;;;;;19.86;73.21;101299.91;2091493;28;20042;-66
2023/09/28 02:57:06;;;;;;;18.15;10.75;;;;;;;19.85;73.18;101295.56;2099320;28;20841;-65
2023/09/28 02:58:13;;;;;;;18.75;10.75;;;;;;;19.86;73.19;101301.81;2107242;28;20151;-66
2023/09/28 02:59:22;;;;;;;21.20;10.77;;;;;;;19.84;73.33;101295.91;2099252;28;20971;-66
2023/09/28 03:00:27;;;;;;;16.23;10.10;;;;;;;19.82;73.18;101289.97;2092027;28;20167;-66
2023/09/28 03:01:31;;;;;;;16.83;10.93;;;;;;;19.83;73.36;101297.84;2099596;28;20061;-66
2023/09/28 03:02:33;;;;;;;23.52;11.13;;;;;;;19.83;73.35;101297.00;2098760;28;20045;-66
2023/09/28 03:03:36;;;;;;;15.70;10.85;;;;;;;19.81;73.46;101300.06;2091190;28;20081;-66
2023/09/28 03:04:38;;;;;;;24.70;12.27;;;;;;;19.79;73.45;101299.59;2106852;28;20782;-66
2023/09/28 03:05:43;;;;;;;22.17;11.00;;;;;;;19.77;73.39;101295.59;2099530;28;20036;-66
2023/09/28 03:06:53;;;;;;;19.60;11.90;;;;;;;19.73;73.32;101291.91;2091546;28;20134;-66
2023/09/28 03:07:58;;;;;;;22.60;11.73;;;;;;;19.70;73.64;101296.06;2093277;28;20873;-66
2023/09/28 03:09:06;;;;;;;18.38;11.75;;;;;;;19.63;73.58;101299.25;2099721;28;20792;-66
2023/09/28 03:10:12;;;;;;;19.30;10.68;;;;;;;19.60;73.96;101299.88;2092028;28;20034;-66
2023/09/28 03:11:13;;;;;;;20.15;11.35;;;;;;;19.58;73.99;101302.16;2090734;28;20072;-66
2023/09/28 03:12:15;;;;;;;22.25;11.48;;;;;;;19.57;74.24;101300.53;2090426;28;20036;-65
2023/09/28 03:13:19;;;;;;;23.35;11.77;;;;;;;19.56;74.31;101298.13;2099356;28;20127;-65
2023/09/28 03:14:27;;;;;;;19.38;11.27;;;;;;;19.56;74.37;101304.41;2091212;28;20033;-65
2023/09/28 03:15:34;;;;;;;26.23;11.75;;;;;;;19.56;74.68;101303.59;2093319;28;20025;-65
2023/09/28 03:16:41;;;;;;;17.80;11.20;;;;;;;19.56;74.50;101309.84;2098329;28;20045;-65
2023/09/28 03:17:43;;;;;;;21.85;11.63;;;;;;;19.57;74.47;101310.66;2082650;28;20146;-65
2023/09/28 03:18:46;;;;;;;21.67;11.82;;;;;;;19.54;74.60;101301.16;2074129;28;20169;-65
2023/09/28 03:19:51;;;;;;;19.17;11.55;;;;;;;19.52;74.55;101303.44;2090886;28;20026;-66
2023/09/28 03:20:54;;;;;;;18.35;11.60;;;;;;;19.48;74.75;101309.84;2091066;28;20864;-66
2023/09/28 03:21:56;;;;;;;21.88;12.02;;;;;;;19.47;74.84;101308.25;2110037;28;21005;-66
2023/09/28 03:23:06;;;;;;;19.58;11.68;;;;;;;19.43;74.92;101306.16;2106960;28;20102;-66
2023/09/28 03:24:08;;;;;;;21.30;11.98;;;;;;;19.42;75.11;101303.75;2091253;28;20095;-67
2023/09/28 03:25:22;;;;;;;20.48;10.77;;;;;;;19.42;75.42;101303.75;2085385;28;20041;-67
2023/09/28 03:26:30;;;;;;;19.77;11.13;;;;;;;19.42;75.16;101301.03;2101491;28;20914;-67
2023/09/28 03:27:34;;;;;;;21.52;12.55;;;;;;;19.41;75.19;101300.22;2107301;28;20036;-67
2023/09/28 03:28:38;;;;;;;19.42;11.73;;;;;;;19.42;75.22;101301.84;2090496;28;20127;-67
2023/09/28 03:30:08;;;;;;;22.60;12.05;;;;;;;19.38;75.15;101291.88;2091846;28;20145;-67
2023/09/28 03:31:11;;;;;;;19.15;11.27;;;;;;;19.40;75.40;101300.53;2108032;28;20683;-67
2023/09/28 03:32:15;;;;;;;18.05;10.70;;;;;;;19.41;75.35;101299.41;2098658;28;20064;-67
2023/09/28 03:33:20;;;;;;;17.70;11.45;;;;;;;19.40;75.30;101298.63;2091264;28;20850;-67
2023/09/28 03:34:26;;;;;;;19.17;10.45;;;;;;;19.38;75.17;101303.56;2106884;28;20928;-67
2023/09/28 03:35:27;;;;;;;16.42;11.52;;;;;;;19.38;75.22;101300.03;2106813;28;20020;-67
2023/09/28 03:36:33;;;;;;;21.95;11.10;;;;;;;19.37;75.25;101295.72;2107195;28;20998;-67
2023/09/28 03:37:35;;;;;;;18.13;11.00;;;;;;;19.35;75.08;101293.31;2097942;28;20903;-67
2023/09/28 03:38:37;;;;;;;19.95;11.48;;;;;;;19.36;75.12;101299.59;2081862;28;20899;-66
2023/09/28 03:39:41;;;;;;;18.90;10.88;;;;;;;19.35;75.16;101303.41;2090622;28;20037;-67
2023/09/28 03:40:43;;;;;;;15.05;10.30;;;;;;;19.34;75.04;101308.06;2098842;28;20049;-67
2023/09/28 03:41:44;;;;;;;17.02;10.95;;;;;;;19.32;74.92;101299.41;2098788;28;20025;-67
2023/09/28 03:42:54;;;;;;;16.27;10.20;;;;;;;19.30;74.90;101298.13;2107067;28;20033;-67
2023/09/28 03:44:01;;;;;;;25.80;10.05;;;;;;;19.29;75.01;101304.69;2089896;28;20831;-67
2023/09/28 03:45:08;;;;;;;18.20;10.13;;;;;;;19.28;75.08;101303.09;2084962;28;20124;-66
2023/09/28 03:46:14;;;;;;;16.15;9.73;;;;;;;19.27;74.91;101296.03;2097440;28;20045;-67
2023/09/28 03:47:16;;;;;;;23.40;9.85;;;;;;;19.23;74.76;101301.34;2098416;28;20111;-67
2023/09/28 03:48:18;;;;;;;16.25;10.43;;;;;;;19.23;74.74;101306.78;2090465;28;20041;-66
2023/09/28 03:49:23;;;;;;;15.88;9.88;;;;;;;19.24;74.74;101293.97;2098086;28;20037;-66
2023/09/28 03:50:29;;;;;;;16.90;9.70;;;;;;;19.23;74.71;101306.78;2098517;28;20028;-67
2023/09/28 03:51:31;;;;;;;22.10;9.85;;;;;;;19.21;74.59;101298.91;2090544;28;20030;-66
2023/09/28 03:52:37;;;;;;;16.98;10.45;;;;;;;19.20;74.48;101291.88;2105362;28;22723;-66
2023/09/28 03:53:44;;;;;;;16.95;9.88;;;;;;;19.20;74.53;101294.59;2100551;28;20072;-66
2023/09/28 03:54:52;;;;;;;16.95;9.43;;;;;;;19.19;74.34;101289.44;2115150;28;20787;-67
2023/09/28 03:55:59;;;;;;;20.00;10.02;;;;;;;19.19;74.47;101290.25;2115782;28;20032;-66
2023/09/28 03:57:04;;;;;;;17.10;9.90;;;;;;;19.20;74.51;101293.78;2106326;28;20157;-67
2023/09/28 03:58:08;;;;;;;17.00;10.10;;;;;;;19.20;74.45;101296.53;2099680;28;20057;-68
2023/09/28 03:59:10;;;;;;;20.48;9.68;;;;;;;19.20;74.44;101293.78;2098934;28;20040;-67
2023/09/28 04:00:14;;;;;;;18.02;10.48;;;;;;;19.20;74.29;101291.88;2098552;28;20040;-67
2023/09/28 04:01:19;;;;;;;14.77;10.23;;;;;;;19.20;74.39;101289.13;2097458;28;20126;-67
2023/09/28 04:02:31;;;;;;;20.70;10.20;;;;;;;19.20;74.24;101297.31;2083005;28;20140;-67
2023/09/28 04:03:32;;;;;;;;;;;;;;;19.19;74.09;101289.44;2097945;28;20052;-67
2023/09/28 04:04:34;;;;;;;17.65;10.15;;;;;;;19.18;74.17;101296.03;2106929;28;19924;-67
2023/09/28 04:05:37;;;;;;;16.73;9.90;;;;;;;19.19;74.15;101294.91;2090840;28;20024;-67
2023/09/28 04:06:39;;;;;;;17.25;10.63;;;;;;;19.18;74.33;101299.56;2081237;28;20077;-67
2023/09/28 04:07:44;;;;;;;24.70;10.57;;;;;;;19.18;74.28;101298.75;2091040;28;20148;-67
2023/09/28 04:08:48;;;;;;;16.77;10.52;;;;;;;19.18;74.28;101296.03;2090529;28;20034;-67
2023/09/28 04:09:54;;;;;;;17.73;10.50;;;;;;;19.18;74.37;101293.31;2089973;28;20135;-67
2023/09/28 04:10:56;;;;;;;16.52;10.02;;;;;;;19.17;74.25;101291.72;2091482;28;20029;-67
2023/09/28 04:11:57;;;;;;;18.30;10.13;;;;;;;19.13;74.08;101291.50;2107195;28;20843;-67
2023/09/28 04:13:01;;;;;;;17.50;10.25;;;;;;;19.12;74.24;101292.66;2107218;28;20033;-67
2023/09/28 04:14:02;;;;;;;17.38;11.05;;;;;;;19.12;74.30;101295.38;2107300;28;20043;-67
2023/09/28 04:15:07;;;;;;;20.42;9.88;;;;;;;19.13;74.14;101296.16;2089647;28;20025;-67
2023/09/28 04:16:12;;;;;;;22.17;10.93;;;;;;;19.10;74.22;101285.91;2082884;28;21239;-67
2023/09/28 04:17:16;;;;;;;19.05;10.60;;;;;;;19.10;74.08;101289.44;2072703;28;20894;-67
2023/09/28 04:18:25;;;;;;;15.52;9.18;;;;;;;19.08;74.00;101291.69;2083097;28;20030;-67
2023/09/28 04:19:27;;;;;;;17.33;9.80;;;;;;;19.06;73.80;101291.19;2090879;28;20029;-67
2023/09/28 04:20:32;;;;;;;20.30;10.07;;;;;;;19.04;74.12;101296.16;2082518;28;20038;-67
2023/09/28 04:21:39;;;;;;;19.75;10.50;;;;;;;19.04;74.12;101288.00;2081626;28;20180;-67
2023/09/28 04:22:46;;;;;;;15.45;10.20;;;;;;;19.04;73.99;101293.44;2095528;28;20037;-67
2023/09/28 04:23:48;;;;;;;14.70;9.85;;;;;;;19.04;74.03;101292.63;2106436;28;20029;-67
2023/09/28 04:24:53;;;;;;;18.63;10.35;;;;;;;19.04;74.01;101285.28;2090561;28;20117;-67
2023/09/28 04:25:57;;;;;;;18.17;9.80;;;;;;;19.04;73.91;101287.16;2106655;28;20027;-67
2023/09/28 04:27:05;;;;;;;16.33;9.85;;;;;;;19.04;73.71;101290.72;2114183;28;20044;-67
2023/09/28 04:28:12;;;;;;;19.00;9.60;;;;;;;19.03;73.66;101291.81;2097855;28;20895;-67
2023/09/28 04:29:16;;;;;;;15.65;10.00;;;;;;;19.01;73.63;101283.19;2098755;28;20029;-67
2023/09/28 04:30:21;;;;;;;20.95;10.73;;;;;;;18.98;73.47;101292.78;2098078;28;20863;-67
2023/09/28 04:31:23;;;;;;;15.60;9.70;;;;;;;19.01;73.70;101293.25;2090880;28;20029;-67
2023/09/28 04:32:27;;;;;;;21.02;10.18;;;;;;;19.01;73.60;101287.81;2080531;28;20045;-67
2023/09/28 04:33:33;;;;;;;17.85;9.68;;;;;;;18.99;73.60;101290.84;2090680;28;20029;-67
2023/09/28 04:34:35;;;;;;;15.93;10.38;;;;;;;18.99;73.50;101290.84;2099291;28;20031;-66
2023/09/28 04:35:37;;;;;;;19.13;11.80;;;;;;;18.98;73.57;101284.63;2115210;28;20778;-66
2023/09/28 04:36:40;;;;;;;22.30;10.30;;;;;;;18.98;73.54;101284.63;2096693;28;20099;-66
2023/09/28 04:37:43;;;;;;;16.67;10.90;;;;;;;19.00;73.62;101287.00;2090777;28;20037;-66
2023/09/28 04:38:45;;;;;;;16.58;10.43;;;;;;;18.99;73.59;101285.41;2098339;28;20033;-67
2023/09/28 04:39:50;;;;;;;22.05;10.73;;;;;;;18.99;73.52;101293.59;2081509;28;20038;-67
2023/09/28 04:40:56;;;;;;;17.55;10.40;;;;;;;18.97;73.40;101293.09;2091701;28;20903;-67
2023/09/28 04:41:58;;;;;;;24.35;10.68;;;;;;;18.96;73.54;101291.50;2098891;28;20949;-67
2023/09/28 04:43:00;;;;;;;25.90;10.98;;;;;;;18.95;73.48;101290.69;2098165;28;20872;-67
2023/09/28 04:44:04;;;;;;;17.65;10.65;;;;;;;18.95;73.48;101290.69;2081907;28;20069;-67
2023/09/28 04:45:08;;;;;;;18.15;10.48;;;;;;;18.95;73.55;101290.69;2074352;28;20031;-67
2023/09/28 04:46:10;;;;;;;19.98;11.05;;;;;;;18.95;73.68;101289.91;2079920;28;20040;-67
2023/09/28 04:47:14;;;;;;;22.30;11.38;;;;;;;18.91;73.55;101288.91;2090135;28;20140;-66
2023/09/28 04:48:18;;;;;;;23.15;11.48;;;;;;;18.89;73.79;101293.88;2100530;28;20111;-66
2023/09/28 04:49:20;;;;;;;25.02;11.35;;;;;;;18.88;73.80;101297.72;2100134;28;20907;-66
2023/09/28 04:50:22;;;;;;;23.10;10.73;;;;;;;18.88;73.89;101300.44;2099825;28;20122;-67
2023/09/28 04:51:24;;;;;;;19.60;10.93;;;;;;;18.86;73.92;101303.50;2099666;28;20884;-66
2023/09/28 04:52:27;;;;;;;14.40;10.85;;;;;;;18.86;73.90;101297.25;2092616;28;20025;-66
2023/09/28 04:53:35;;;;;;;20.10;11.40;;;;;;;18.86;74.00;101305.41;2100982;28;20095;-66
2023/09/28 04:54:41;;;;;;;17.20;11.20;;;;;;;18.85;73.98;101306.53;2116886;28;20086;-66
2023/09/28 04:55:43;;;;;;;16.10;11.18;;;;;;;18.85;74.11;101301.06;2117377;27;20735;-66
2023/09/28 04:56:46;;;;;;;20.17;12.05;;;;;;;18.81;73.96;101302.81;2115700;28;20047;-65
2023/09/28 04:57:48;;;;;;;19.23;11.45;;;;;;;18.81;74.13;101298.19;2116603;28;20027;-66